M I D A S
Marine Information and Data Acquisition System
Tripno 1673 of the Zeeleeuw from 2009-04-08 07:38:57 to 2009-04-08 15:30:15
Back to CruiseResearch ActivitiesStationsMapUnderway DataData graphs

EquipmentUnitsComment
TimeDGPSUTC
LatitudeDGPSDM.mWGS84
LongitudeDGPSDM.mWGS84
TemperatureSBE03/SBE38deg celciusITS90
ConductivitySBE21S/mITS90
SalinitySBE21 Practical Salinity Units
ChlorophylAChelsea fluorimeterg/lCalibrated in Aceton
Missing or incorrect values are displayed as -999
Sea surface data collected by the RV Zeeleeuw from 2009-04-08 07:39:33 to 2009-04-08 15:44:35
Time Latitude Longitude Temperature Conductivity Salinity ChlorophylA
2009-04-08 07:40:39 51°13.683 2°55.888 -999 1.985078 13.449443 -1.035392
2009-04-08 07:41:39 51°13.692 2°55.795 -999 1.984562 13.449881 -1.035392
2009-04-08 07:42:37 51°13.69 2°55.745 -999 1.984046 13.45057 -1.035392
2009-04-08 07:43:35 51°13.714 2°55.746 -999 1.983323 13.44798 -1.035392
2009-04-08 07:44:35 51°13.777 2°55.684 -999 1.983013 13.448193 -1.035392
2009-04-08 07:45:35 51°13.887 2°55.591 -999 1.98229 13.446354 -1.035392
2009-04-08 07:46:35 51°14.019 2°55.494 -999 1.981464 13.442749 -1.035392
2009-04-08 07:47:35 51°14.153 2°55.389 -999 1.980845 13.44042 -1.035392
2009-04-08 07:48:35 51°14.273 2°55.238 -999 1.980432 13.44037 -1.035392
2009-04-08 07:49:35 51°14.372 2°55.039 -999 1.979399 13.434734 -1.035392
2009-04-08 07:50:35 51°14.506 2°54.858 -999 1.979399 13.438742 -1.035392
2009-04-08 07:51:35 51°14.67 2°54.699 -999 1.976714 13.420124 -1.035392
2009-04-08 07:52:35 51°14.836 2°54.535 -999 1.976921 13.422654 -1.035392
2009-04-08 07:53:35 51°15.002 2°54.374 -999 1.97847 13.445403 -1.035392
2009-04-08 07:54:35 51°15.166 2°54.209 -999 1.977954 13.440826 -1.035392
2009-04-08 07:55:35 51°15.333 2°54.048 -999 1.976405 13.440896 -1.035392
2009-04-08 07:56:35 51°15.5 2°53.885 -999 1.975062 13.435967 -1.035392
2009-04-08 07:57:35 51°15.666 2°53.722 -999 1.975579 13.446583 -1.035392
2009-04-08 07:58:35 51°15.832 2°53.56 -999 1.97372 13.436816 -1.070216
2009-04-08 07:59:35 51°16.001 2°53.404 -999 1.975166 13.459384 -1.035392
2009-04-08 08:00:35 51°16.169 2°53.248 -999 1.972275 13.443198 -1.070216
2009-04-08 08:01:35 51°16.345 2°53.111 -999 1.974134 13.465591 -1.070216
2009-04-08 08:02:35 51°16.522 2°52.983 -999 1.970829 13.447331 -1.035392
2009-04-08 08:03:35 51°16.697 2°52.855 -999 1.972585 13.467972 -1.035392
2009-04-08 08:04:35 51°16.869 2°52.73 -999 1.972275 13.470727 -1.070216
2009-04-08 08:05:35 51°17.042 2°52.614 -999 1.971346 13.472669 -1.070216
2009-04-08 08:06:35 51°17.218 2°52.54 -999 1.984875 13.583957 -1.070216
2009-04-08 08:07:35 51°17.37 2°52.671 -999 1.979505 13.562795 -1.070216
2009-04-08 08:08:35 51°17.469 2°52.911 -999 1.985185 13.594458 -1.070216
2009-04-08 08:09:35 51°17.565 2°53.153 -999 1.977646 13.570668 -1.070216
2009-04-08 08:10:35 51°17.669 2°53.385 -999 1.97744 13.559645 -1.070216
2009-04-08 08:11:35 51°17.778 2°53.61 -999 2.018751 13.903174 -1.070216
2009-04-08 08:12:35 51°17.886 2°53.841 -999 2.013588 13.901525 -1.070216
2009-04-08 08:13:35 51°17.993 2°54.07 -999 1.999954 13.774336 -1.070216
2009-04-08 08:14:35 51°18.099 2°54.304 -999 2.000265 13.810182 -1.070216
2009-04-08 08:15:35 51°18.204 2°54.538 -999 1.980126 13.657889 -1.070216
2009-04-08 08:16:35 51°18.313 2°54.77 -999 1.997063 13.770899 -1.070216
2009-04-08 08:17:35 51°18.423 2°54.999 -999 1.987665 13.727898 -1.070216
2009-04-08 08:18:35 51°18.529 2°55.225 -999 1.989318 13.739032 -1.070216
2009-04-08 08:19:35 51°18.634 2°55.456 -999 1.977028 13.649129 -1.070216
2009-04-08 08:20:35 51°18.739 2°55.686 -999 1.972691 13.631803 -1.070216
2009-04-08 08:21:35 51°18.845 2°55.916 -999 1.978578 13.68737 -1.070216
2009-04-08 08:22:35 51°18.948 2°56.15 -999 1.999646 13.866981 -1.070216
2009-04-08 08:23:35 51°19.054 2°56.377 -999 1.990351 13.785388 -1.10504
2009-04-08 08:24:35 51°19.158 2°56.604 -999 3.353221 24.408751 -1.070216
2009-04-08 08:25:35 51°19.26 2°56.835 -999 2.002022 13.893708 -1.10504
2009-04-08 08:26:35 51°19.371 2°57.06 -999 2.065542 14.385943 -1.070216
2009-04-08 08:27:35 51°19.478 2°57.282 -999 1.995723 13.873656 -0.617504
2009-04-08 08:28:35 51°19.579 2°57.512 -999 2.004605 13.967249 -0.721976
2009-04-08 08:29:35 51°19.655 2°57.768 -999 2.01514 14.054874 -0.7568
2009-04-08 08:30:35 51°19.727 2°58.028 -999 1.991179 13.873817 -0.687152
2009-04-08 08:31:35 51°19.799 2°58.294 -999 1.96629 13.678565 -0.791624
2009-04-08 08:32:35 51°19.876 2°58.556 -999 2.001197 13.946452 -0.791624
2009-04-08 08:33:35 51°19.953 2°58.818 -999 1.989733 13.859635 -0.721976
2009-04-08 08:34:35 51°20.029 2°59.085 -999 1.992315 13.880845 -0.7568
2009-04-08 08:35:35 51°20.106 2°59.349 -999 1.974139 13.746283 -0.791624
2009-04-08 08:36:35 51°20.184 2°59.615 -999 2.006981 14.002796 -0.7568
2009-04-08 08:37:35 51°20.262 2°59.882 -999 1.963605 13.660834 -0.547855
2009-04-08 08:38:35 51°20.333 3°0.156 -999 1.961127 13.650442 -0.721976
2009-04-08 08:39:35 51°20.405 3°0.432 -999 1.965671 13.690714 -0.7568
2009-04-08 08:40:35 51°20.482 3°0.708 -999 1.978683 13.78794 -0.7568
2009-04-08 08:41:35 51°20.559 3°0.989 -999 1.986945 13.854715 -0.791624
2009-04-08 08:42:35 51°20.633 3°1.265 -999 1.971248 13.736759 -0.7568
2009-04-08 08:43:35 51°20.709 3°1.541 -999 1.95679 13.624358 -0.791624
2009-04-08 08:44:35 51°20.792 3°1.817 -999 1.958029 13.639803 -0.791624
2009-04-08 08:45:35 51°20.869 3°2.096 -999 1.954105 13.607654 -0.791624
2009-04-08 08:46:35 51°20.949 3°2.373 -999 1.957203 13.636684 -0.791624
2009-04-08 08:47:35 51°21.031 3°2.648 -999 1.958133 13.641901 -0.791624
2009-04-08 08:48:35 51°21.109 3°2.93 -999 1.955035 13.624155 -0.791624
2009-04-08 08:49:35 51°21.186 3°3.211 -999 1.967014 13.715167 -0.791624
2009-04-08 08:50:35 51°21.259 3°3.494 -999 1.958752 13.654763 -0.826448
2009-04-08 08:51:35 51°21.334 3°3.777 -999 1.956274 13.637774 -0.791624
2009-04-08 08:52:35 51°21.403 3°4.064 -999 1.95679 13.643013 -0.58268
2009-04-08 08:53:35 51°21.466 3°4.357 -999 1.954828 13.632048 -0.652328
2009-04-08 08:54:35 51°21.534 3°4.651 -999 1.958339 13.660844 -0.652328
2009-04-08 08:55:35 51°21.6 3°4.945 -999 1.956377 13.648561 -0.687152
2009-04-08 08:56:35 51°21.666 3°5.24 -999 1.969699 13.753077 -0.687152
2009-04-08 08:57:35 51°21.736 3°5.533 -999 1.958133 13.665076 -0.687152
2009-04-08 08:58:35 51°21.803 3°5.825 -999 1.960715 13.688678 -0.721976
2009-04-08 08:59:35 51°21.873 3°6.119 -999 1.943469 13.559348 -0.721976
2009-04-08 09:00:35 51°21.943 3°6.415 -999 1.958753 13.67824 -0.721976
2009-04-08 09:01:35 51°22.011 3°6.713 -999 1.952144 13.630844 -0.721976
2009-04-08 09:02:35 51°22.079 3°7.011 -999 1.954312 13.645766 -0.721976
2009-04-08 09:03:35 51°22.144 3°7.314 -999 1.946567 13.594722 -0.721976
2009-04-08 09:04:35 51°22.212 3°7.615 -999 1.945638 13.585022 -0.617504
2009-04-08 09:05:35 51°22.28 3°7.917 -999 1.954829 13.663162 -0.652328
2009-04-08 09:06:35 51°22.347 3°8.217 -999 1.951937 13.642457 -0.687152
2009-04-08 09:07:35 51°22.416 3°8.515 -999 1.994485 13.975592 -0.687152
2009-04-08 09:08:35 51°22.484 3°8.813 -999 1.936035 13.534998 -0.791624
2009-04-08 09:09:35 51°22.55 3°9.113 -999 1.971559 13.810974 -0.7568
2009-04-08 09:10:35 51°22.616 3°9.416 -999 1.95989 13.728014 -0.791624
2009-04-08 09:11:35 51°22.679 3°9.715 -999 1.934693 13.534999 -0.58268
2009-04-08 09:12:35 51°22.746 3°10.019 -999 1.941818 13.598556 -0.687152
2009-04-08 09:13:35 51°22.819 3°10.316 -999 1.940889 13.595686 -0.687152
2009-04-08 09:14:35 51°22.949 3°10.547 -999 1.934383 13.543406 -0.687152
2009-04-08 09:15:35 51°23.132 3°10.598 -999 1.938307 13.593136 -0.687152
2009-04-08 09:16:35 51°23.316 3°10.52 -999 1.932318 13.540793 -0.687152
2009-04-08 09:17:35 51°23.487 3°10.406 -999 1.936345 13.577352 -0.687152
2009-04-08 09:18:35 51°23.595 3°10.35 -999 1.936759 13.588963 -0.687152
2009-04-08 09:19:35 51°23.651 3°10.427 -999 1.941922 13.65422 -0.721976
2009-04-08 09:20:35 51°23.662 3°10.503 -999 1.948945 13.716865 -0.721976
2009-04-08 09:21:35 51°23.668 3°10.561 -999 1.954934 13.768458 -0.721976
2009-04-08 09:22:35 51°23.672 3°10.614 -999 1.946363 13.698936 -0.687152
2009-04-08 09:23:35 51°23.677 3°10.689 -999 1.940993 13.649761 -0.721976
2009-04-08 09:24:35 51°23.677 3°10.806 -999 1.939341 13.647217 -0.721976
2009-04-08 09:25:35 51°23.662 3°10.914 -999 1.953798 13.75383 -0.721976
2009-04-08 09:26:35 51°23.646 3°11.019 -999 1.943369 13.715068 -0.687152
2009-04-08 09:27:35 51°23.638 3°11.13 -999 1.949048 13.753369 -0.687152
2009-04-08 09:28:35 51°23.642 3°11.242 -999 1.950701 13.773358 -0.721976
2009-04-08 09:29:35 51°23.657 3°11.351 -999 1.941923 13.714966 -0.721976
2009-04-08 09:30:35 51°23.678 3°11.454 -999 1.937896 13.688267 -0.721976
2009-04-08 09:31:35 51°23.705 3°11.551 -999 1.93263 13.643187 -0.721976
2009-04-08 09:32:35 51°23.73 3°11.649 -999 1.934592 13.667392 -0.687152
2009-04-08 09:33:35 51°23.751 3°11.749 -999 1.934385 13.670362 -0.687152
2009-04-08 09:34:35 51°23.774 3°11.849 -999 1.932836 13.65629 -0.687152
2009-04-08 09:35:35 51°23.798 3°11.949 -999 1.930875 13.645471 -0.687152
2009-04-08 09:36:35 51°23.824 3°12.049 -999 1.941201 13.732024 -0.687152
2009-04-08 09:37:35 51°23.852 3°12.147 -999 1.934695 13.682418 -0.687152
2009-04-08 09:38:35 51°23.879 3°12.247 -999 1.930668 13.652995 -0.687152
2009-04-08 09:39:35 51°23.904 3°12.349 -999 1.93294 13.677759 -0.687152
2009-04-08 09:40:35 51°23.923 3°12.453 -999 1.928809 13.63921 -0.687152
2009-04-08 09:41:35 51°23.935 3°12.556 -999 1.926022 13.633269 -0.687152
2009-04-08 09:42:35 51°23.943 3°12.658 -999 1.925402 13.619647 -0.687152
2009-04-08 09:43:35 51°23.942 3°12.759 -999 1.927674 13.656764 -0.687152
2009-04-08 09:44:35 51°23.936 3°12.858 -999 1.92313 13.615526 -0.687152
2009-04-08 09:45:35 51°23.925 3°12.951 -999 1.931702 13.70027 -0.687152
2009-04-08 09:46:35 51°23.911 3°13.044 -999 1.926022 13.649656 -0.687152
2009-04-08 09:47:35 51°23.889 3°13.138 -999 1.93005 13.697226 -0.687152
2009-04-08 09:48:35 51°23.869 3°13.234 -999 1.926952 13.693003 -0.687152
2009-04-08 09:49:35 51°23.848 3°13.333 -999 1.934593 13.751911 -0.687152
2009-04-08 09:50:35 51°23.827 3°13.432 -999 1.929637 13.711624 -0.687152
2009-04-08 09:51:35 51°23.808 3°13.536 -999 1.930772 13.705792 -0.687152
2009-04-08 09:52:35 51°23.789 3°13.64 -999 1.924371 13.692238 -0.687152
2009-04-08 09:53:35 51°23.771 3°13.746 -999 1.924887 13.704655 -0.687152
2009-04-08 09:54:35 51°23.753 3°13.854 -999 1.918382 13.659882 -0.687152
2009-04-08 09:55:35 51°23.736 3°13.961 -999 1.918072 13.657208 -0.687152
2009-04-08 09:56:35 51°23.718 3°14.068 -999 1.919105 13.669285 -0.687152
2009-04-08 09:57:35 51°23.708 3°14.186 -999 1.917556 13.659162 -0.687152
2009-04-08 09:58:35 51°23.706 3°14.312 -999 1.913735 13.631947 -0.687152
2009-04-08 09:59:35 51°23.704 3°14.439 -999 1.918486 13.676957 -0.687152
2009-04-08 10:00:35 51°23.694 3°14.558 -999 1.914045 13.642473 -0.687152
2009-04-08 10:01:35 51°23.685 3°14.675 -999 1.909915 13.616892 -0.687152
2009-04-08 10:02:35 51°23.676 3°14.789 -999 1.906714 13.596354 -0.687152
2009-04-08 10:03:35 51°23.665 3°14.906 -999 1.913736 13.655525 -0.687152
2009-04-08 10:04:35 51°23.664 3°15.007 -999 1.907747 13.609244 -0.687152
2009-04-08 10:05:35 51°23.668 3°15.097 -999 1.911051 13.650943 -0.687152
2009-04-08 10:06:35 51°23.675 3°15.182 -999 1.906818 13.612579 -0.687152
2009-04-08 10:07:35 51°23.686 3°15.266 -999 1.90341 13.596636 -0.687152
2009-04-08 10:08:35 51°23.692 3°15.376 -999 1.912084 13.660611 -0.687152
2009-04-08 10:09:35 51°23.707 3°15.519 -999 1.909916 13.63966 -0.687152
2009-04-08 10:10:35 51°23.767 3°15.627 -999 1.903514 13.609912 -0.687152
2009-04-08 10:11:35 51°23.882 3°15.637 -999 1.891433 13.510728 -0.687152
2009-04-08 10:12:35 51°24.054 3°15.608 -999 1.895666 13.546911 -0.687152
2009-04-08 10:13:35 51°24.243 3°15.576 -999 1.890401 13.514009 -0.687152
2009-04-08 10:14:35 51°24.437 3°15.546 -999 1.890504 13.523719 -0.687152
2009-04-08 10:15:35 51°24.629 3°15.514 -999 1.893602 13.547587 -0.687152
2009-04-08 10:16:35 51°24.822 3°15.489 -999 1.890194 13.525898 -0.652328
2009-04-08 10:17:35 51°25.006 3°15.43 -999 1.890917 13.545334 -0.687152
2009-04-08 10:18:35 51°25.174 3°15.322 -999 1.887716 13.523066 -0.687152
2009-04-08 10:19:35 51°25.334 3°15.195 -999 1.885342 13.500755 -0.687152
2009-04-08 10:20:35 51°25.494 3°15.065 -999 1.887097 13.518773 -0.687152
2009-04-08 10:21:35 51°25.652 3°14.932 -999 1.887097 13.511204 -0.617504
2009-04-08 10:22:35 51°25.809 3°14.796 -999 1.88689 13.51608 -0.617504
2009-04-08 10:23:35 51°25.965 3°14.66 -999 1.887717 13.529292 -0.617504
2009-04-08 10:24:35 51°26.118 3°14.523 -999 1.884206 13.497837 -0.652328
2009-04-08 10:25:35 51°26.274 3°14.388 -999 1.886788 13.53613 -0.617504
2009-04-08 10:26:35 51°26.444 3°14.303 -999 1.889575 13.56281 -0.652328
2009-04-08 10:27:35 51°26.628 3°14.276 -999 1.906097 13.704405 -0.652328
2009-04-08 10:28:35 51°26.813 3°14.255 -999 1.883277 13.526869 -0.617504
2009-04-08 10:29:35 51°26.917 3°14.243 -999 1.886065 13.568569 -0.652328
2009-04-08 10:30:35 51°26.964 3°14.247 -999 1.880593 13.52515 -0.652328
2009-04-08 10:31:35 51°27.015 3°14.309 -999 1.879974 13.525738 -0.652328
2009-04-08 10:32:35 51°27.039 3°14.447 -999 1.889886 13.604802 -0.652328
2009-04-08 10:33:35 51°27.043 3°14.571 -999 1.90207 13.69817 -0.652328
2009-04-08 10:34:35 51°27.042 3°14.679 -999 1.901967 13.710327 -0.652328
2009-04-08 10:35:35 51°27.038 3°14.785 -999 1.905168 13.750979 -0.652328
2009-04-08 10:36:35 51°27.031 3°14.889 -999 1.912293 13.780614 -0.652328
2009-04-08 10:37:35 51°27.032 3°15.005 -999 1.897321 13.685145 -0.652328
2009-04-08 10:38:35 51°27.036 3°15.122 -999 1.900109 13.712859 -0.652328
2009-04-08 10:39:35 51°27.041 3°15.239 -999 1.900315 13.719188 -0.652328
2009-04-08 10:40:35 51°27.045 3°15.352 -999 1.896082 13.704707 -0.617504
2009-04-08 10:41:35 51°27.051 3°15.466 -999 1.897011 13.700116 -0.652328
2009-04-08 10:42:35 51°27.058 3°15.578 -999 1.897115 13.705357 -0.652328
2009-04-08 10:43:35 51°27.066 3°15.689 -999 1.883588 13.608021 -0.617504
2009-04-08 10:44:35 51°27.074 3°15.799 -999 1.888235 13.665866 -0.652328
2009-04-08 10:45:35 51°27.084 3°15.907 -999 1.883589 13.623171 -0.617504
2009-04-08 10:46:35 51°27.095 3°16.015 -999 1.889887 13.676674 -0.652328
2009-04-08 10:47:35 51°27.111 3°16.12 -999 1.88617 13.652076 -0.652328
2009-04-08 10:48:35 51°27.132 3°16.224 -999 1.891643 13.692453 -0.652328
2009-04-08 10:49:35 51°27.16 3°16.319 -999 1.885344 13.660511 -0.652328
2009-04-08 10:50:35 51°27.198 3°16.397 -999 1.876362 13.592115 -0.652328
2009-04-08 10:51:35 51°27.242 3°16.454 -999 1.870063 13.552334 -0.652328
2009-04-08 10:52:35 51°27.288 3°16.502 -999 1.86614 13.524943 -0.652328
2009-04-08 10:53:35 51°27.335 3°16.54 -999 1.867689 13.537992 -0.652328
2009-04-08 10:54:35 51°27.378 3°16.572 -999 1.867379 13.534722 -0.652328
2009-04-08 10:55:35 51°27.42 3°16.594 -999 1.865314 13.520072 -0.652328
2009-04-08 10:56:35 51°27.463 3°16.614 -999 1.863662 13.501547 -0.652328
2009-04-08 10:57:35 51°27.506 3°16.636 -999 1.861803 13.491543 -0.652328
2009-04-08 10:58:35 51°27.553 3°16.664 -999 1.864901 13.519833 -0.547855
2009-04-08 10:59:35 51°27.605 3°16.709 -999 1.865314 13.527768 -0.547855
2009-04-08 11:00:35 51°27.657 3°16.762 -999 1.863559 13.517479 -0.547855
2009-04-08 11:01:35 51°27.708 3°16.806 -999 1.865004 13.526972 -0.58268
2009-04-08 11:02:35 51°27.76 3°16.847 -999 1.860048 13.488656 -0.58268
2009-04-08 11:03:35 51°27.812 3°16.892 -999 1.859429 13.484586 -0.58268
2009-04-08 11:04:35 51°27.865 3°16.953 -999 1.861907 13.512401 -0.58268
2009-04-08 11:05:35 51°27.912 3°17.034 -999 1.863043 13.524405 -0.58268
2009-04-08 11:06:35 51°27.959 3°17.102 -999 1.864901 13.537444 -0.58268
2009-04-08 11:07:35 51°28.005 3°17.145 -999 1.858397 13.487131 -0.58268
2009-04-08 11:08:35 51°28.047 3°17.167 -999 1.857364 13.481442 -0.547855
2009-04-08 11:09:35 51°28.093 3°17.192 -999 1.856745 13.475448 -0.547855
2009-04-08 11:10:35 51°28.148 3°17.23 -999 1.858397 13.494274 -0.58268
2009-04-08 11:11:35 51°28.202 3°17.302 -999 1.859326 13.503547 -0.58268
2009-04-08 11:12:35 51°28.239 3°17.404 -999 1.859842 13.510382 -0.58268
2009-04-08 11:13:35 51°28.256 3°17.512 -999 1.873162 13.621613 -0.58268
2009-04-08 11:14:35 51°28.262 3°17.613 -999 1.867999 13.584333 -0.58268
2009-04-08 11:15:35 51°28.266 3°17.699 -999 1.876053 13.647573 -0.58268
2009-04-08 11:16:35 51°28.269 3°17.779 -999 1.874194 13.629791 -0.58268
2009-04-08 11:17:35 51°28.272 3°17.855 -999 1.874091 13.648177 -0.58268
2009-04-08 11:18:35 51°28.252 3°17.941 -999 1.878324 13.67087 -0.58268
2009-04-08 11:19:35 51°28.215 3°17.97 -999 1.870065 13.652221 -0.58268
2009-04-08 11:20:35 51°28.165 3°17.855 -999 1.862218 13.567611 -0.58268
2009-04-08 11:21:35 51°28.089 3°17.66 -999 1.858604 13.54005 -0.58268
2009-04-08 11:22:35 51°28.003 3°17.441 -999 1.86263 13.551217 -0.58268
2009-04-08 11:23:35 51°27.917 3°17.218 -999 1.8553 13.516883 -0.58268
2009-04-08 11:24:35 51°27.831 3°16.995 -999 1.861082 13.566091 -0.58268
2009-04-08 11:25:35 51°27.744 3°16.773 -999 1.85592 13.536475 -0.58268
2009-04-08 11:26:35 51°27.656 3°16.547 -999 1.855197 13.535171 -0.58268
2009-04-08 11:27:35 51°27.57 3°16.32 -999 1.853752 13.537836 -0.58268
2009-04-08 11:28:35 51°27.484 3°16.089 -999 1.848693 13.492906 -0.58268
2009-04-08 11:29:35 51°27.409 3°15.849 -999 1.851377 13.512024 -0.58268
2009-04-08 11:30:35 51°27.339 3°15.605 -999 1.852616 13.523811 -0.58268
2009-04-08 11:31:35 51°27.27 3°15.36 -999 1.850758 13.50544 -0.58268
2009-04-08 11:32:35 51°27.202 3°15.116 -999 1.850758 13.518188 -0.58268
2009-04-08 11:33:35 51°27.133 3°14.873 -999 1.849829 13.501932 -0.58268
2009-04-08 11:34:35 51°27.064 3°14.63 -999 1.850139 13.520754 -0.547855
2009-04-08 11:35:35 51°26.997 3°14.399 -999 1.850655 13.52764 -0.547855
2009-04-08 11:36:35 51°26.968 3°14.289 -999 1.849519 13.527772 -0.547855
2009-04-08 11:37:35 51°26.966 3°14.259 -999 1.850242 13.537981 -0.547855
2009-04-08 11:38:35 51°26.982 3°14.276 -999 1.847971 13.516828 -0.547855
2009-04-08 11:39:35 51°27.002 3°14.31 -999 1.846112 13.503139 -0.547855
2009-04-08 11:40:35 51°27.02 3°14.351 -999 1.845493 13.497373 -0.547855
2009-04-08 11:41:35 51°27.035 3°14.394 -999 1.843325 13.482326 -0.547855
2009-04-08 11:42:35 51°27.048 3°14.439 -999 1.842705 13.478225 -0.547855
2009-04-08 11:43:35 51°27.062 3°14.483 -999 1.84095 13.465633 -0.547855
2009-04-08 11:44:35 51°27.077 3°14.525 -999 1.842086 13.4744 -0.58268
2009-04-08 11:45:35 51°27.091 3°14.566 -999 1.843118 13.485119 -0.547855
2009-04-08 11:46:35 51°27.105 3°14.61 -999 1.840331 13.472617 -0.547855
2009-04-08 11:47:35 51°27.118 3°14.656 -999 1.839918 13.470158 -0.547855
2009-04-08 11:48:35 51°27.129 3°14.7 -999 1.839815 13.473219 -0.547855
2009-04-08 11:49:35 51°27.141 3°14.745 -999 1.838989 13.46497 -0.547855
2009-04-08 11:50:35 51°27.153 3°14.787 -999 1.839402 13.471591 -0.547855
2009-04-08 11:51:35 51°27.167 3°14.829 -999 1.839195 13.470223 -0.547855
2009-04-08 11:52:35 51°27.181 3°14.869 -999 1.837544 13.469818 -0.58268
2009-04-08 11:53:35 51°27.195 3°14.91 -999 1.837853 13.46729 -0.58268
2009-04-08 11:54:35 51°27.208 3°14.953 -999 1.83775 13.4673 -0.58268
2009-04-08 11:55:35 51°27.222 3°14.995 -999 1.836511 13.463801 -0.547855
2009-04-08 11:56:35 51°27.237 3°15.036 -999 1.836924 13.468208 -0.547855
2009-04-08 11:57:35 51°27.254 3°15.077 -999 1.837131 13.477365 -0.547855
2009-04-08 11:58:36 51°27.297 3°15.073 -999 1.835376 13.46446 -0.547855
2009-04-08 11:59:35 51°27.392 3°14.983 -999 1.833724 13.457381 -0.58268
2009-04-08 12:00:35 51°27.511 3°14.813 -999 1.833104 13.449931 -0.547855
2009-04-08 12:01:35 51°27.64 3°14.606 -999 1.833414 13.453794 -0.547855
2009-04-08 12:02:35 51°27.764 3°14.378 -999 1.831349 13.442854 -0.547855
2009-04-08 12:03:35 51°27.885 3°14.146 -999 1.833414 13.462694 -0.547855
2009-04-08 12:04:35 51°28.007 3°13.917 -999 1.832175 13.454182 -0.547855
2009-04-08 12:05:35 51°28.13 3°13.686 -999 1.830524 13.446537 -0.547855
2009-04-08 12:06:35 51°28.252 3°13.458 -999 1.831866 13.461448 -0.547855
2009-04-08 12:07:35 51°28.377 3°13.227 -999 1.831246 13.457049 -0.547855
2009-04-08 12:08:35 51°28.499 3°12.998 -999 1.833828 13.476305 -0.547855
2009-04-08 12:09:35 51°28.622 3°12.769 -999 1.831143 13.459009 -0.547855
2009-04-08 12:10:35 51°28.746 3°12.538 -999 1.83073 13.460999 -0.58268
2009-04-08 12:11:35 51°28.87 3°12.308 -999 1.829285 13.449708 -0.58268
2009-04-08 12:12:35 51°28.996 3°12.079 -999 1.828769 13.447805 -0.547855
2009-04-08 12:13:35 51°29.124 3°11.851 -999 1.828356 13.441993 -0.58268
2009-04-08 12:14:36 51°29.253 3°11.62 -999 1.827427 13.440959 -0.547855
2009-04-08 12:15:35 51°29.381 3°11.4 -999 1.82815 13.453437 -0.547855
2009-04-08 12:16:35 51°29.511 3°11.177 -999 1.827427 13.447926 -0.547855
2009-04-08 12:17:35 51°29.642 3°10.956 -999 1.826704 13.442973 -0.58268
2009-04-08 12:18:35 51°29.771 3°10.731 -999 1.826291 13.440501 -0.547855
2009-04-08 12:19:35 51°29.903 3°10.507 -999 1.825672 13.438325 -0.58268
2009-04-08 12:20:35 51°30.036 3°10.284 -999 1.825052 13.43587 -0.58268
2009-04-08 12:21:35 51°30.168 3°10.058 -999 1.825156 13.440044 -0.547855
2009-04-08 12:22:35 51°30.296 3°9.832 -999 1.825052 13.43838 -0.547855
2009-04-08 12:23:35 51°30.413 3°9.598 -999 1.823091 13.4221 -0.58268
2009-04-08 12:24:35 51°30.529 3°9.365 -999 1.825362 13.450633 -0.547855
2009-04-08 12:25:35 51°30.647 3°9.134 -999 1.823917 13.440993 -0.547855
2009-04-08 12:26:35 51°30.768 3°8.909 -999 1.823711 13.442409 -0.547855
2009-04-08 12:27:35 51°30.887 3°8.686 -999 1.824433 13.452121 -0.547855
2009-04-08 12:28:35 51°30.996 3°8.452 -999 1.822782 13.440819 -0.547855
2009-04-08 12:29:35 51°31.105 3°8.218 -999 1.821956 13.436704 -0.547855
2009-04-08 12:30:36 51°31.217 3°7.981 -999 1.820923 13.433444 -0.547855
2009-04-08 12:31:35 51°31.325 3°7.748 -999 1.823298 13.455034 -0.547855
2009-04-08 12:32:36 51°31.435 3°7.507 -999 1.82144 13.439267 -0.547855
2009-04-08 12:33:35 51°31.54 3°7.269 -999 1.821749 13.444553 -0.547855
2009-04-08 12:34:35 51°31.653 3°7.032 -999 1.822369 13.451489 -0.547855
2009-04-08 12:35:35 51°31.77 3°6.801 -999 1.82113 13.442654 -0.547855
2009-04-08 12:36:35 51°31.888 3°6.575 -999 1.819994 13.435487 -0.547855
2009-04-08 12:37:35 51°32.006 3°6.352 -999 1.820614 13.446905 -0.547855
2009-04-08 12:38:35 51°32.124 3°6.126 -999 1.819788 13.443626 -0.547855
2009-04-08 12:39:36 51°32.243 3°5.896 -999 1.819065 13.438935 -0.547855
2009-04-08 12:40:35 51°32.36 3°5.672 -999 1.817517 13.431801 -0.547855
2009-04-08 12:41:35 51°32.475 3°5.441 -999 1.81793 13.435964 -0.547855
2009-04-08 12:42:35 51°32.595 3°5.214 -999 1.817414 13.434333 -0.547855
2009-04-08 12:43:35 51°32.709 3°4.975 -999 1.817517 13.437966 -0.547855
2009-04-08 12:44:35 51°32.819 3°4.731 -999 1.817723 13.44075 -0.547855
2009-04-08 12:45:35 51°32.929 3°4.488 -999 1.817104 13.442777 -0.547855
2009-04-08 12:46:36 51°33.039 3°4.237 -999 1.819375 13.463598 -0.547855
2009-04-08 12:47:35 51°33.152 3°3.997 -999 1.816175 13.43782 -0.547855
2009-04-08 12:48:36 51°33.277 3°3.754 -999 1.818033 13.451102 -0.547855
2009-04-08 12:49:35 51°33.399 3°3.518 -999 1.818446 13.464268 -0.547855
2009-04-08 12:50:36 51°33.526 3°3.274 -999 1.817311 13.455959 -0.547855
2009-04-08 12:51:35 51°33.647 3°3.034 -999 1.817001 13.454307 -0.547855
2009-04-08 12:52:35 51°33.77 3°2.792 -999 1.817724 13.470832 -0.547855
2009-04-08 12:53:36 51°33.897 3°2.55 -999 1.817414 13.472844 -0.547855
2009-04-08 12:54:35 51°34.021 3°2.317 -999 1.815143 13.449732 -0.547855
2009-04-08 12:55:36 51°34.152 3°2.08 -999 1.81504 13.450024 -0.547855
2009-04-08 12:56:35 51°34.28 3°1.849 -999 1.813698 13.447922 -0.547855
2009-04-08 12:57:36 51°34.407 3°1.602 -999 1.812769 13.439298 -0.547855
2009-04-08 12:58:35 51°34.532 3°1.364 -999 1.81184 13.434332 -0.547855
2009-04-08 12:59:36 51°34.658 3°1.119 -999 1.819583 13.519491 -0.58268
2009-04-08 13:00:36 51°34.779 3°0.894 -999 1.813388 13.464597 -0.58268
2009-04-08 13:01:35 51°34.886 3°0.696 -999 1.813285 13.455015 -0.547855
2009-04-08 13:02:35 51°34.963 3°0.584 -999 1.812047 13.471838 -0.547855
2009-04-08 13:03:35 51°35.008 3°0.562 -999 1.811427 13.458908 -0.547855
2009-04-08 13:04:36 51°35.041 3°0.581 -999 1.810911 13.46944 -0.547855
2009-04-08 13:05:35 51°35.075 3°0.607 -999 1.811634 13.461991 -0.547855
2009-04-08 13:06:36 51°35.106 3°0.641 -999 1.809982 13.465881 -0.58268
2009-04-08 13:07:35 51°35.136 3°0.674 -999 1.810395 13.474325 -0.58268
2009-04-08 13:08:36 51°35.165 3°0.709 -999 1.809569 13.465935 -0.58268
2009-04-08 13:09:36 51°35.193 3°0.744 -999 1.80864 13.458126 -0.58268
2009-04-08 13:10:35 51°35.221 3°0.777 -999 1.808124 13.467545 -0.58268
2009-04-08 13:11:36 51°35.251 3°0.812 -999 1.808847 13.46348 -0.547855
2009-04-08 13:12:35 51°35.279 3°0.844 -999 1.808124 13.458475 -0.547855
2009-04-08 13:13:36 51°35.323 3°0.858 -999 1.806782 13.456665 -0.58268
2009-04-08 13:14:35 51°35.39 3°0.735 -999 1.806266 13.457298 -0.58268
2009-04-08 13:15:36 51°35.439 3°0.472 -999 1.805853 13.452816 -0.58268
2009-04-08 13:16:35 51°35.459 3°0.206 -999 1.80544 13.442955 -0.58268
2009-04-08 13:17:36 51°35.475 2°59.919 -999 1.806369 13.466364 -0.547855
2009-04-08 13:18:35 51°35.493 2°59.649 -999 1.808744 13.488476 -0.547855
2009-04-08 13:19:35 51°35.501 2°59.372 -999 1.805337 13.465085 -0.547855
2009-04-08 13:20:36 51°35.496 2°59.094 -999 1.809054 13.499816 -0.547855
2009-04-08 13:21:35 51°35.471 2°58.838 -999 1.805543 13.462501 -0.547855
2009-04-08 13:22:36 51°35.445 2°58.582 -999 1.80575 13.470143 -0.547855
2009-04-08 13:23:36 51°35.412 2°58.336 -999 1.808434 13.494785 -0.547855
2009-04-08 13:24:35 51°35.378 2°58.078 -999 1.808021 13.50112 -0.547855
2009-04-08 13:25:36 51°35.343 2°57.82 -999 1.810705 13.516086 -0.547855
2009-04-08 13:26:37 51°35.294 2°57.573 -999 1.831973 13.69767 -0.547855
2009-04-08 13:27:36 51°35.246 2°57.34 -999 1.814216 13.540035 -0.547855
2009-04-08 13:28:35 51°35.197 2°57.103 -999 1.815352 13.572752 -0.547855
2009-04-08 13:29:36 51°35.145 2°56.856 -999 1.81019 13.526743 -0.547855
2009-04-08 13:30:36 51°35.096 2°56.614 -999 1.80988 13.530803 -0.547855
2009-04-08 13:31:36 51°35.045 2°56.368 -999 1.808331 13.518202 -0.547855
2009-04-08 13:32:36 51°34.996 2°56.131 -999 1.811842 13.552212 -0.547855
2009-04-08 13:33:36 51°34.946 2°55.885 -999 1.808125 13.51881 -0.547855
2009-04-08 13:34:36 51°34.898 2°55.646 -999 1.810396 13.538726 -0.547855
2009-04-08 13:35:35 51°34.821 2°55.43 -999 1.806989 13.507568 -0.547855
2009-04-08 13:36:35 51°34.709 2°55.255 -999 1.814216 13.567527 -0.513031
2009-04-08 13:37:35 51°34.583 2°55.105 -999 1.810603 13.561356 -0.513031
2009-04-08 13:38:36 51°34.455 2°54.948 -999 1.814526 13.580391 -0.478207
2009-04-08 13:39:35 51°34.333 2°54.795 -999 1.811738 13.55711 -0.478207
2009-04-08 13:40:36 51°34.199 2°54.643 -999 1.815765 13.590484 -0.478207
2009-04-08 13:41:35 51°34.068 2°54.51 -999 1.821856 13.649369 -0.478207
2009-04-08 13:42:36 51°33.932 2°54.37 -999 1.815249 13.583402 -0.513031
2009-04-08 13:43:36 51°33.801 2°54.231 -999 1.904559 14.336779 -0.373735
2009-04-08 13:44:36 51°33.673 2°54.094 -999 2.035405 15.416619 -0.443383
2009-04-08 13:45:36 51°33.542 2°53.952 -999 1.998327 15.121413 -0.443383
2009-04-08 13:46:35 51°33.41 2°53.809 -999 1.87792 14.132236 -0.443383
2009-04-08 13:47:36 51°33.273 2°53.659 -999 1.866149 14.032205 -0.408559
2009-04-08 13:48:36 51°33.145 2°53.52 -999 1.883082 14.178176 -0.408559
2009-04-08 13:49:36 51°33.016 2°53.382 -999 1.944315 14.682238 -0.443383
2009-04-08 13:50:36 51°32.885 2°53.24 -999 1.92707 14.542207 -0.408559
2009-04-08 13:51:36 51°32.748 2°53.112 -999 1.901255 14.328527 -0.373735
2009-04-08 13:52:35 51°32.588 2°53.06 -999 2.020325 15.308292 -0.373735
2009-04-08 13:53:36 51°32.42 2°53.03 -999 1.943489 14.680429 -0.373735
2009-04-08 13:54:36 51°32.256 2°52.999 -999 1.945038 14.693496 -0.408559
2009-04-08 13:55:35 51°32.096 2°52.96 -999 2.335851 17.946568 -0.408559
2009-04-08 13:56:36 51°31.928 2°52.916 -999 2.087567 15.870908 -0.338911
2009-04-08 13:57:36 51°31.767 2°52.878 -999 2.114838 16.096061 -0.408559
2009-04-08 13:58:36 51°31.603 2°52.835 -999 1.886283 14.207451 -0.373735
2009-04-08 13:59:35 51°31.441 2°52.788 -999 1.958876 14.797429 -0.373735
2009-04-08 14:00:36 51°31.274 2°52.737 -999 1.966002 14.875719 -0.408559
2009-04-08 14:01:36 51°31.11 2°52.693 -999 1.951441 14.753444 -0.338911
2009-04-08 14:02:36 51°30.947 2°52.65 -999 2.341639 18.003293 -0.408559
2009-04-08 14:03:36 51°30.787 2°52.608 -999 1.855102 13.965183 -0.408559
2009-04-08 14:04:35 51°30.627 2°52.566 -999 2.164322 16.521614 -0.408559
2009-04-08 14:05:36 51°30.46 2°52.53 -999 1.888762 14.247467 -0.373735
2009-04-08 14:06:36 51°30.291 2°52.492 -999 2.086947 15.882649 -0.373735
2009-04-08 14:07:36 51°30.121 2°52.464 -999 1.940082 14.662034 -0.408559
2009-04-08 14:08:36 51°29.948 2°52.442 -999 1.86553 14.056682 -0.373735
2009-04-08 14:09:36 51°29.777 2°52.419 -999 1.853966 13.962705 -0.373735
2009-04-08 14:10:36 51°29.603 2°52.393 -999 1.920255 14.506205 -0.373735
2009-04-08 14:11:36 51°29.428 2°52.366 -999 2.192631 16.76826 -0.373735
2009-04-08 14:12:36 51°29.255 2°52.339 -999 1.894234 14.297925 -0.408559
2009-04-08 14:13:36 51°29.084 2°52.309 -999 2.053377 15.609629 -0.408559
2009-04-08 14:14:36 51°28.91 2°52.279 -999 1.936055 14.638515 -0.373735
2009-04-08 14:15:36 51°28.737 2°52.249 -999 1.887316 14.240741 -0.408559
2009-04-08 14:16:36 51°28.564 2°52.215 -999 1.872654 14.121773 -0.408559
2009-04-08 14:17:36 51°28.388 2°52.19 -999 1.985624 15.054987 -0.373735
2009-04-08 14:18:36 51°28.212 2°52.172 -999 1.894131 14.302558 -0.408559
2009-04-08 14:19:36 51°28.035 2°52.154 -999 1.876268 14.155681 -0.408559
2009-04-08 14:20:36 51°27.856 2°52.159 -999 2.073829 15.792182 -0.338911
2009-04-08 14:21:36 51°27.68 2°52.175 -999 1.949996 14.762883 -0.338911
2009-04-08 14:22:35 51°27.506 2°52.179 -999 1.868111 14.080564 -0.408559
2009-04-08 14:23:36 51°27.327 2°52.184 -999 1.907554 14.406587 -0.408559
2009-04-08 14:24:36 51°27.15 2°52.189 -999 1.988826 15.081462 -0.373735
2009-04-08 14:25:36 51°26.973 2°52.196 -999 1.89506 14.30746 -0.408559
2009-04-08 14:26:36 51°26.795 2°52.201 -999 1.884838 14.230676 -0.443383
2009-04-08 14:27:36 51°26.615 2°52.205 -999 1.942974 14.704939 -0.408559
2009-04-08 14:28:36 51°26.434 2°52.207 -999 1.943387 14.707721 -0.373735
2009-04-08 14:29:36 51°26.254 2°52.212 -999 1.916228 14.488784 -0.373735
2009-04-08 14:30:36 51°26.075 2°52.215 -999 2.001529 15.189792 -0.373735
2009-04-08 14:31:36 51°25.895 2°52.215 -999 1.855102 13.985118 -0.408559
2009-04-08 14:32:36 51°25.715 2°52.217 -999 1.893305 14.301857 -0.408559
2009-04-08 14:33:36 51°25.535 2°52.216 -999 1.886697 14.250215 -0.373735
2009-04-08 14:34:36 51°25.355 2°52.214 -999 2.074139 15.794758 -0.443383
2009-04-08 14:35:36 51°25.173 2°52.212 -999 1.880915 14.205977 -0.373735
2009-04-08 14:36:36 51°24.99 2°52.207 -999 1.927071 14.581881 -0.408559
2009-04-08 14:37:36 51°24.809 2°52.205 -999 1.910859 14.449167 -0.408559
2009-04-08 14:38:36 51°24.626 2°52.199 -999 1.912305 14.461079 -0.373735
2009-04-08 14:39:36 51°24.442 2°52.191 -999 1.84932 13.942412 -0.338911
2009-04-08 14:40:36 51°24.26 2°52.185 -999 1.918707 14.513537 -0.408559
2009-04-08 14:41:36 51°24.077 2°52.179 -999 1.992028 15.123086 -0.443383
2009-04-08 14:42:36 51°23.896 2°52.174 -999 2.111739 16.106609 -0.408559
2009-04-08 14:43:36 51°23.715 2°52.167 -999 1.863155 14.055445 -0.338911
2009-04-08 14:44:36 51°23.535 2°52.16 -999 1.871415 14.125134 -0.373735
2009-04-08 14:45:36 51°23.354 2°52.156 -999 1.98831 15.091661 -0.408559
2009-04-08 14:46:36 51°23.171 2°52.151 -999 1.905077 14.403985 -0.408559
2009-04-08 14:47:36 51°22.986 2°52.149 -999 1.872861 14.142144 -0.408559
2009-04-08 14:48:36 51°22.801 2°52.144 -999 1.861297 14.046464 -0.408559
2009-04-08 14:49:36 51°22.617 2°52.138 -999 1.884219 14.228006 -0.408559
2009-04-08 14:50:36 51°22.432 2°52.135 -999 1.956192 14.827616 -0.408559
2009-04-08 14:51:36 51°22.248 2°52.128 -999 1.854999 13.995007 -0.443383
2009-04-08 14:52:36 51°22.064 2°52.124 -999 1.856444 14.008378 -0.304087
2009-04-08 14:53:36 51°21.878 2°52.116 -999 1.844984 13.908001 -0.373735
2009-04-08 14:54:36 51°21.692 2°52.11 -999 1.848494 13.943062 -0.408559
2009-04-08 14:55:36 51°21.506 2°52.102 -999 1.863362 14.066437 -0.408559
2009-04-08 14:56:36 51°21.318 2°52.104 -999 1.918294 14.521278 -0.373735
2009-04-08 14:57:36 51°21.136 2°52.087 -999 1.864498 14.075775 -0.373735
2009-04-08 14:58:36 51°20.952 2°52.077 -999 1.888142 14.264543 -0.408559
2009-04-08 14:59:36 51°20.766 2°52.071 -999 1.957225 14.841215 -0.373735
2009-04-08 15:00:36 51°20.579 2°52.083 -999 1.835898 13.839639 -0.408559
2009-04-08 15:01:36 51°20.39 2°52.094 -999 1.831769 13.806042 -0.408559
2009-04-08 15:02:36 51°20.202 2°52.107 -999 1.881741 14.217625 -0.373735
2009-04-08 15:03:36 51°20.013 2°52.12 -999 1.843951 13.905456 -0.408559
2009-04-08 15:04:36 51°19.825 2°52.137 -999 1.836931 13.846341 -0.338911
2009-04-08 15:05:36 51°19.635 2°52.151 -999 1.929653 14.610337 -0.373735
2009-04-08 15:06:36 51°19.445 2°52.164 -999 1.866459 14.087999 -0.408559
2009-04-08 15:07:36 51°19.254 2°52.175 -999 1.821651 13.722164 -0.408559
2009-04-08 15:08:36 51°19.064 2°52.185 -999 1.897126 14.342474 -0.408559
2009-04-08 15:09:36 51°18.875 2°52.196 -999 1.832182 13.805603 -0.408559
2009-04-08 15:10:36 51°18.686 2°52.207 -999 1.857167 14.01103 -0.373735
2009-04-08 15:11:36 51°18.497 2°52.215 -999 1.866666 14.088796 -0.373735
2009-04-08 15:12:36 51°18.309 2°52.228 -999 1.828568 13.776255 -0.373735
2009-04-08 15:13:36 51°18.121 2°52.24 -999 1.842196 13.887786 -0.443383
2009-04-08 15:14:36 51°17.932 2°52.251 -999 1.858922 14.023657 -0.408559
2009-04-08 15:15:36 51°17.742 2°52.259 -999 1.910136 14.446292 -0.408559
2009-04-08 15:16:36 51°17.553 2°52.268 -999 1.850353 13.954161 -0.373735
2009-04-08 15:17:36 51°17.363 2°52.278 -999 1.864807 14.071118 -0.373735
2009-04-08 15:18:36 51°17.172 2°52.284 -999 1.843332 13.89622 -0.338911
2009-04-08 15:19:36 51°16.98 2°52.295 -999 1.853657 13.979806 -0.443383
2009-04-08 15:20:36 51°16.794 2°52.358 -999 1.847668 13.925585 -0.408559
2009-04-08 15:21:36 51°16.62 2°52.484 -999 1.812359 13.637555 -0.443383
2009-04-08 15:22:36 51°16.454 2°52.643 -999 1.911065 14.442248 -0.373735
2009-04-08 15:23:36 51°16.281 2°52.778 -999 1.939256 14.685225 -0.443383
2009-04-08 15:24:36 51°16.103 2°52.901 -999 1.842299 13.886265 -0.408559
2009-04-08 15:25:36 51°15.929 2°53.03 -999 1.875752 14.152343 -0.408559
2009-04-08 15:26:36 51°15.753 2°53.157 -999 1.901875 14.361387 -0.443383
2009-04-08 15:27:36 51°15.573 2°53.282 -999 1.848597 13.927572 -0.373735
2009-04-08 15:28:36 51°15.395 2°53.408 -999 1.841577 13.874713 -0.408559
2009-04-08 15:29:36 51°15.213 2°53.536 -999 1.846842 13.914951 -0.373735
2009-04-08 15:30:36 51°15.045 2°53.699 -999 1.841783 13.874929 -0.408559
2009-04-08 15:31:36 51°14.909 2°53.925 -999 1.836001 13.828394 -0.408559
2009-04-08 15:32:36 51°14.788 2°54.165 -999 1.851591 13.956599 -0.373735
2009-04-08 15:33:36 51°14.669 2°54.405 -999 1.854999 13.984569 -0.373735
2009-04-08 15:34:36 51°14.549 2°54.645 -999 1.821754 13.711606 -0.373735
2009-04-08 15:35:36 51°14.43 2°54.886 -999 1.847668 13.923805 -0.338911
2009-04-08 15:36:36 51°14.319 2°55.134 -999 1.831768 13.79251 -0.408559
2009-04-08 15:37:36 51°14.218 2°55.323 -999 1.839718 13.857106 -0.373735
2009-04-08 15:38:35 51°14.098 2°55.442 -999 1.841164 13.868665 -0.373735
2009-04-08 15:39:35 51°13.961 2°55.536 -999 1.844777 13.897715 -0.408559
2009-04-08 15:40:36 51°13.82 2°55.64 -999 1.842196 13.875951 -0.408559
2009-04-08 15:41:40 51°13.729 2°55.767 -999 1.843641 13.887215 -0.373735
2009-04-08 15:42:40 51°13.676 2°55.882 -999 1.851591 13.951842 -0.408559
2009-04-08 15:43:40 51°13.662 2°55.953 -999 1.846326 13.907457 -0.373735